Time;durP1;ratioP1;P1;durP2;ratioP2;P2;SDS_P1;SDS_P2;PMS_P1;PMS_P2;Temp;Humidity;BMP_temperature;BMP_pressure;BME280_temperature;BME280_humidity;BME280_pressure;Samples;Min_cycle;Max_cycle;Signal;HPM_P1;HPM_P2
2024/04/19 00:01:05;;;;;;;2.28;1.40;;;;;;;5.93;53.21;93415.22;5500739;26;20026;-77
2024/04/19 00:03:30;;;;;;;2.92;1.23;;;;;;;5.95;53.35;93415.75;5500596;26;19997;-77
2024/04/19 00:05:56;;;;;;;1.83;1.30;;;;;;;5.99;54.06;93413.31;5502403;26;19986;-78
2024/04/19 00:08:22;;;;;;;2.80;1.77;;;;;;;5.97;54.82;93416.22;5504425;26;20185;-77
2024/04/19 00:10:48;;;;;;;4.13;1.92;;;;;;;6.02;54.94;93415.34;5504381;26;20209;-77
2024/04/19 00:13:13;;;;;;;2.42;1.60;;;;;;;6.09;55.66;93421.03;5504216;26;19982;-78
2024/04/19 00:15:42;;;;;;;3.65;1.88;;;;;;;6.14;55.93;93423.56;5504453;26;19993;-78
2024/04/19 00:18:07;;;;;;;3.10;1.60;;;;;;;6.18;56.18;93421.13;5504479;26;19998;-78
2024/04/19 00:20:32;;;;;;;4.20;2.55;;;;;;;6.21;58.50;93421.31;5504434;26;19993;-78
2024/04/19 00:22:58;;;;;;;2.75;1.70;;;;;;;6.18;57.65;93416.59;5503198;26;19986;-78
2024/04/19 00:25:23;;;;;;;4.38;1.70;;;;;;;6.18;56.87;93426.41;5503965;26;19992;-77
2024/04/19 00:27:49;;;;;;;4.22;1.48;;;;;;;6.14;57.47;93431.50;5504010;26;19989;-77
2024/04/19 00:30:14;;;;;;;4.60;2.22;;;;;;;6.00;57.51;93428.88;5504001;26;20009;-77
2024/04/19 00:32:39;;;;;;;3.20;2.22;;;;;;;5.97;57.75;93436.63;5504060;26;20011;-78
2024/04/19 00:35:05;;;;;;;3.25;1.90;;;;;;;5.94;58.20;93423.94;5504458;26;20001;-78
2024/04/19 00:37:30;;;;;;;2.75;1.85;;;;;;;5.87;58.29;93418.28;5503936;26;19982;-77
2024/04/19 00:39:56;;;;;;;3.40;1.77;;;;;;;5.83;58.91;93426.78;5504486;26;20094;-78
2024/04/19 00:42:22;;;;;;;3.63;2.15;;;;;;;5.80;58.66;93424.72;5527181;26;20041;-77
2024/04/19 00:44:48;;;;;;;3.33;2.30;;;;;;;5.74;59.04;93428.56;5540623;25;19985;-77
2024/04/19 00:47:15;;;;;;;4.43;2.28;;;;;;;5.71;59.00;93423.84;5540609;25;19981;-77
2024/04/19 00:49:41;;;;;;;3.00;1.90;;;;;;;5.59;59.81;93434.09;5508877;26;19992;-77
2024/04/19 00:52:07;;;;;;;6.40;2.13;;;;;;;5.58;61.08;93429.91;5540661;25;19985;-77
2024/04/19 00:54:35;;;;;;;4.60;2.20;;;;;;;5.54;61.01;93434.22;5541139;26;20184;-77
2024/04/19 00:57:02;;;;;;;4.82;2.13;;;;;;;5.51;60.90;93429.50;5540692;25;20036;-77
2024/04/19 00:59:28;;;;;;;4.30;2.88;;;;;;;5.48;61.77;93424.78;5540750;25;19989;-77
2024/04/19 01:01:54;;;;;;;4.00;2.35;;;;;;;5.48;61.82;93435.38;5540639;26;20005;-77
2024/04/19 01:04:21;;;;;;;3.92;2.38;;;;;;;5.38;62.82;93428.41;5540613;25;19985;-77
2024/04/19 01:06:46;;;;;;;4.20;2.70;;;;;;;5.33;63.04;93431.91;5540500;26;19993;-77
2024/04/19 01:09:13;;;;;;;4.68;2.53;;;;;;;5.30;63.60;93439.63;5540209;26;20188;-78
2024/04/19 01:11:39;;;;;;;4.00;2.75;;;;;;;5.27;64.08;93433.06;5509079;26;19992;-77
2024/04/19 01:14:04;;;;;;;5.32;3.20;;;;;;;5.14;65.02;93433.81;5540651;26;20006;-77
2024/04/19 01:16:30;;;;;;;3.97;2.38;;;;;;;5.17;65.65;93436.66;5539471;26;19981;-77
2024/04/19 01:18:55;;;;;;;4.15;2.63;;;;;;;5.24;66.22;93444.22;5540178;26;19985;-78
2024/04/19 01:21:22;;;;;;;4.88;2.70;;;;;;;5.17;66.36;93446.41;5540265;26;19992;-77
2024/04/19 01:23:53;;;;;;;4.18;2.33;;;;;;;5.14;66.17;93447.00;5539879;25;19981;-77
2024/04/19 01:26:18;;;;;;;3.45;2.15;;;;;;;5.12;65.14;93436.72;5540323;25;20001;-77
2024/04/19 01:28:45;;;;;;;7.25;2.90;;;;;;;5.07;62.98;93450.03;5540009;26;20042;-77
2024/04/19 01:31:10;;;;;;;6.32;2.35;;;;;;;4.98;62.92;93436.69;5508500;25;19989;-78
2024/04/19 01:33:35;;;;;;;5.95;2.70;;;;;;;4.83;63.25;93442.22;5540224;26;20197;-78
2024/04/19 01:36:01;;;;;;;4.65;2.50;;;;;;;4.66;63.69;93440.09;5539871;25;19996;-78
2024/04/19 01:38:26;;;;;;;6.15;2.65;;;;;;;4.55;64.92;93449.97;5539980;26;20037;-78
2024/04/19 01:40:52;;;;;;;7.25;2.42;;;;;;;4.40;65.58;93447.56;5540118;25;19985;-78
2024/04/19 01:43:17;;;;;;;5.22;2.90;;;;;;;4.36;66.34;93457.09;5539967;25;20025;-78
2024/04/19 01:45:42;;;;;;;5.88;2.85;;;;;;;4.35;66.85;93458.16;5539730;26;20189;-78
2024/04/19 01:48:09;;;;;;;4.88;3.05;;;;;;;4.35;66.42;93453.66;5540193;25;19989;-78
2024/04/19 01:50:35;;;;;;;7.15;3.45;;;;;;;4.36;67.53;93457.09;5539900;25;19988;-78
2024/04/19 01:53:00;;;;;;;4.80;2.40;;;;;;;4.39;68.14;93452.03;5539717;26;20096;-78
2024/04/19 01:55:26;;;;;;;4.70;3.40;;;;;;;4.47;68.43;93458.53;5539616;25;20052;-78
2024/04/19 01:57:51;;;;;;;3.25;2.50;;;;;;;4.53;68.02;93465.31;5540133;26;20188;-78
2024/04/19 02:00:16;;;;;;;5.07;2.78;;;;;;;4.60;67.30;93455.19;5539595;26;20067;-78
2024/04/19 02:02:42;;;;;;;4.85;2.97;;;;;;;4.65;67.62;93464.91;5539625;25;20004;-78
2024/04/19 02:05:07;;;;;;;3.83;2.30;;;;;;;4.69;67.67;93457.97;5539605;26;20001;-78
2024/04/19 02:07:33;;;;;;;3.60;2.05;;;;;;;4.70;67.34;93456.91;5539881;26;19985;-78
2024/04/19 02:09:58;;;;;;;4.20;2.67;;;;;;;4.75;67.70;93458.69;5539325;26;20092;-78
2024/04/19 02:12:24;;;;;;;4.25;2.42;;;;;;;4.78;67.20;93460.75;5539470;25;20189;-78
2024/04/19 02:14:51;;;;;;;3.28;2.22;;;;;;;4.79;67.42;93460.47;5539629;26;20041;-78
2024/04/19 02:17:16;;;;;;;19.15;4.00;;;;;;;4.74;67.83;93457.09;5539679;25;19997;-78
2024/04/19 02:19:43;;;;;;;3.20;2.13;;;;;;;4.72;67.98;93453.97;5539606;26;19982;-78
2024/04/19 02:22:09;;;;;;;5.15;2.70;;;;;;;4.68;68.33;93461.69;5539243;26;19981;-78
2024/04/19 02:24:34;;;;;;;3.70;2.75;;;;;;;4.68;68.76;93458.25;5539321;26;20009;-78
2024/04/19 02:27:03;;;;;;;3.90;2.38;;;;;;;4.69;69.14;93470.41;5539257;26;20010;-78
2024/04/19 02:32:13;;;;;;;4.88;2.30;;;;;;;4.54;69.18;93468.72;5536914;25;20075;-78
2024/04/19 02:34:40;;;;;;;4.78;2.42;;;;;;;4.56;69.03;93470.03;5538310;25;19990;-78
2024/04/19 02:37:06;;;;;;;4.13;1.88;;;;;;;4.57;68.63;93470.81;5537110;25;19989;-78
2024/04/19 02:39:31;;;;;;;3.53;2.17;;;;;;;4.54;68.77;93469.53;5539080;26;20001;-78
2024/04/19 02:41:57;;;;;;;7.10;3.30;;;;;;;4.57;68.68;93471.59;5538695;26;19985;-78
2024/04/19 02:44:22;;;;;;;6.78;2.47;;;;;;;4.56;69.13;93474.50;5539028;25;20113;-78
2024/04/19 02:46:50;;;;;;;3.05;2.00;;;;;;;4.59;68.86;93471.31;5539154;25;19989;-78
2024/04/19 02:49:15;;;;;;;4.40;2.67;;;;;;;4.56;69.31;93472.66;5539068;26;19982;-78
2024/04/19 02:51:41;;;;;;;4.63;2.70;;;;;;;4.58;69.14;93473.16;5539011;25;20092;-78
2024/04/19 02:54:06;;;;;;;4.57;2.70;;;;;;;4.54;69.07;93469.53;5538893;26;20000;-77
2024/04/19 02:56:32;;;;;;;4.53;2.45;;;;;;;4.53;68.50;93472.44;5539038;26;19982;-78
2024/04/19 02:58:57;;;;;;;4.55;2.78;;;;;;;4.58;69.14;93472.38;5538999;26;19993;-78
2024/04/19 03:01:23;;;;;;;3.22;2.40;;;;;;;4.56;68.96;93470.03;5538791;25;20092;-77
2024/04/19 03:03:48;;;;;;;4.63;2.83;;;;;;;4.58;69.51;93475.00;5538569;26;19987;-77
2024/04/19 03:06:14;;;;;;;3.83;2.58;;;;;;;4.58;68.96;93478.47;5538741;25;20192;-78
2024/04/19 03:08:40;;;;;;;4.18;2.70;;;;;;;4.58;68.85;93472.38;5538776;26;20009;-78
2024/04/19 03:11:05;;;;;;;3.85;2.15;;;;;;;4.64;67.34;93476.53;5538924;25;19986;-77
2024/04/19 03:13:31;;;;;;;3.50;1.55;;;;;;;4.63;66.74;93467.81;5538364;25;19986;-78
2024/04/19 03:16:06;;;;;;;4.53;1.80;;;;;;;4.67;66.19;93478.59;5538632;26;19993;-78
2024/04/19 03:18:32;;;;;;;2.92;2.13;;;;;;;4.65;66.01;93477.31;5538579;25;19988;-78
2024/04/19 03:21:01;;;;;;;4.28;2.20;;;;;;;4.67;66.19;93472.53;5538863;25;19986;-78
2024/04/19 03:23:27;;;;;;;4.60;2.53;;;;;;;4.68;66.21;93476.72;5538347;26;20027;-78
2024/04/19 03:25:59;;;;;;;3.67;2.33;;;;;;;4.75;67.19;93467.38;5537833;25;19981;-78
2024/04/19 03:28:25;;;;;;;5.03;2.10;;;;;;;4.78;66.73;93476.59;5538472;25;19990;-78
2024/04/19 03:30:50;;;;;;;10.25;3.00;;;;;;;4.75;67.43;93477.19;5538504;25;20105;-79
2024/04/19 03:33:16;;;;;;;6.47;2.40;;;;;;;4.77;68.21;93486.38;5506517;26;19981;-79
2024/04/19 03:35:41;;;;;;;4.57;2.58;;;;;;;4.82;68.73;93491.59;5538347;25;19986;-78
2024/04/19 03:38:07;;;;;;;5.15;2.80;;;;;;;4.90;68.52;93484.88;5538092;26;20038;-78
2024/04/19 03:40:32;;;;;;;4.35;2.38;;;;;;;4.94;68.76;93490.38;5539371;25;20000;-78
2024/04/19 03:42:59;;;;;;;12.40;3.33;;;;;;;4.95;68.41;93492.72;5541606;26;20016;-77
2024/04/19 03:45:44;;;;;;;4.72;2.60;;;;;;;4.93;69.06;93504.66;5541561;26;19993;-77
2024/04/19 03:48:12;;;;;;;10.43;3.50;;;;;;;4.93;69.27;93500.16;5541750;26;19985;-77
2024/04/19 03:50:37;;;;;;;14.02;3.67;;;;;;;4.89;69.92;93504.44;5541747;26;19985;-77
2024/04/19 03:53:03;;;;;;;9.63;3.67;;;;;;;4.91;69.64;93497.00;5541446;25;20205;-77
2024/04/19 03:55:29;;;;;;;10.48;3.92;;;;;;;4.92;69.79;93508.34;5541477;26;19989;-78
2024/04/19 03:57:54;;;;;;;13.63;4.95;;;;;;;4.88;70.24;93502.84;5541397;25;19992;-78
2024/04/19 04:00:20;;;;;;;11.02;4.75;;;;;;;4.85;71.20;93516.63;5541274;26;20047;-75
2024/04/19 04:02:45;;;;;;;14.60;6.28;;;;;;;4.86;72.97;93525.34;5540466;26;19997;-83
2024/04/19 04:05:11;;;;;;;10.85;6.20;;;;;;;4.92;73.60;93514.41;5540719;26;19982;-82
2024/04/19 04:07:36;;;;;;;13.60;6.05;;;;;;;4.97;72.98;93519.63;5541112;25;19985;-82
2024/04/19 04:10:02;;;;;;;13.88;5.43;;;;;;;5.00;72.30;93524.34;5541641;26;19993;-82
2024/04/19 04:12:29;;;;;;;9.35;6.22;;;;;;;5.04;71.82;93527.19;5539640;25;19985;-77
2024/04/19 04:14:55;;;;;;;11.52;5.78;;;;;;;5.02;71.95;93535.41;5540367;25;20193;-77
2024/04/19 04:17:20;;;;;;;11.82;6.13;;;;;;;5.05;71.96;93538.53;5538968;26;19996;-77
2024/04/19 04:19:45;;;;;;;11.30;5.45;;;;;;;5.08;71.18;93533.47;5541745;26;19996;-77
2024/04/19 04:22:11;;;;;;;8.27;5.07;;;;;;;5.15;70.54;93528.63;5537101;25;20095;-77
2024/04/19 04:24:36;;;;;;;9.48;5.65;;;;;;;5.09;70.37;93535.06;5536997;25;19985;-77
2024/04/19 04:27:05;;;;;;;14.52;5.60;;;;;;;5.15;69.99;93547.13;5538387;25;19990;-77
2024/04/19 04:29:31;;;;;;;11.18;5.32;;;;;;;5.11;69.93;93538.22;5538141;25;20089;-77
2024/04/19 04:31:57;;;;;;;11.63;5.60;;;;;;;5.07;70.40;93542.50;5538203;26;19982;-77
2024/04/19 04:34:22;;;;;;;10.02;5.35;;;;;;;4.99;70.66;93536.00;5538465;26;20037;-77
2024/04/19 04:36:47;;;;;;;11.05;5.63;;;;;;;4.87;70.53;93543.53;5540271;25;19996;-77
2024/04/19 04:39:13;;;;;;;14.10;5.18;;;;;;;4.81;71.33;93545.47;5540988;26;19986;-77
2024/04/19 04:41:39;;;;;;;10.77;5.82;;;;;;;4.78;71.22;93545.25;5541426;26;19982;-77
2024/04/19 04:44:10;;;;;;;16.35;5.78;;;;;;;4.80;71.77;93549.19;5540986;26;19981;-77
2024/04/19 04:46:39;;;;;;;11.75;5.75;;;;;;;4.83;71.67;93540.69;5540959;25;20096;-76
2024/04/19 04:49:05;;;;;;;10.32;5.63;;;;;;;4.85;71.87;93550.97;5540985;26;20005;-77
2024/04/19 04:51:31;;;;;;;10.32;6.10;;;;;;;4.81;72.21;93550.75;5539375;25;20010;-77
2024/04/19 04:53:56;;;;;;;11.50;6.05;;;;;;;4.84;72.39;93559.94;5540547;25;20041;-77
2024/04/19 04:56:22;;;;;;;23.20;6.63;;;;;;;4.93;71.95;93563.53;5540896;25;20014;-77
2024/04/19 04:58:47;;;;;;;17.33;6.47;;;;;;;5.01;72.15;93560.25;5541192;25;20064;-77
2024/04/19 05:01:13;;;;;;;11.57;6.10;;;;;;;5.02;72.08;93569.75;5540512;25;20009;-78
2024/04/19 05:03:41;;;;;;;13.10;6.28;;;;;;;5.13;71.97;93562.47;5540717;25;19982;-79
2024/04/19 05:06:06;;;;;;;24.27;6.75;;;;;;;5.20;72.17;93570.03;5540439;25;20205;-79
2024/04/19 05:08:32;;;;;;;27.63;6.45;;;;;;;5.23;72.14;93566.81;5508603;26;19988;-78
2024/04/19 05:10:57;;;;;;;11.10;6.15;;;;;;;5.24;71.86;93584.25;5540035;25;19989;-79
2024/04/19 05:13:23;;;;;;;16.25;6.07;;;;;;;5.23;71.90;93574.75;5540409;26;20056;-79
2024/04/19 05:15:50;;;;;;;11.25;7.00;;;;;;;5.26;71.15;93571.53;5540065;25;19993;-78
2024/04/19 05:18:18;;;;;;;25.35;6.38;;;;;;;5.31;70.78;93582.06;5540183;25;19986;-78
2024/04/19 05:20:46;;;;;;;14.48;6.03;;;;;;;5.30;71.34;93579.69;5540389;26;20119;-78
2024/04/19 05:23:12;;;;;;;12.80;5.22;;;;;;;5.31;71.10;93584.69;5540089;26;20077;-78
2024/04/19 05:25:37;;;;;;;11.80;6.35;;;;;;;5.36;71.63;93589.91;5540184;25;19982;-78
2024/04/19 05:28:03;;;;;;;16.98;6.32;;;;;;;5.46;70.99;93582.91;5540296;25;19993;-78
2024/04/19 05:30:28;;;;;;;11.35;6.05;;;;;;;5.52;70.15;93595.75;5540020;26;20738;-78
2024/04/19 05:32:54;;;;;;;12.77;5.60;;;;;;;5.55;71.32;93589.09;5539995;26;19985;-78
2024/04/19 05:35:19;;;;;;;11.07;5.65;;;;;;;5.58;70.59;93588.53;5540176;25;19988;-78
2024/04/19 05:37:45;;;;;;;13.75;6.25;;;;;;;5.62;70.52;93590.31;5539662;26;19993;-79
2024/04/19 05:40:10;;;;;;;11.48;6.72;;;;;;;5.69;70.18;93595.22;5539490;26;19989;-79
2024/04/19 05:42:35;;;;;;;16.52;6.38;;;;;;;5.79;70.15;93605.63;5539197;25;20112;-79
2024/04/19 05:45:02;;;;;;;9.55;5.72;;;;;;;5.83;70.08;93592.63;5539304;26;19986;-78
2024/04/19 05:47:27;;;;;;;13.73;6.72;;;;;;;5.81;70.23;93582.31;5539609;25;20052;-78
2024/04/19 05:49:52;;;;;;;19.73;6.70;;;;;;;5.84;70.55;93586.25;5539550;25;20193;-78
2024/04/19 05:52:18;;;;;;;13.68;6.60;;;;;;;5.94;70.56;93591.41;5539729;25;19992;-79
2024/04/19 05:54:43;;;;;;;13.80;6.70;;;;;;;5.99;69.89;93593.19;5507625;26;20096;-78
2024/04/19 05:57:08;;;;;;;19.55;6.32;;;;;;;6.10;70.14;93597.22;5539472;26;20033;-79
2024/04/19 05:59:34;;;;;;;18.30;7.32;;;;;;;6.04;70.35;93590.44;5538973;25;19985;-79
2024/04/19 06:02:00;;;;;;;23.50;6.68;;;;;;;6.15;70.99;93589.22;5539417;25;20475;-78
2024/04/19 06:04:26;;;;;;;18.85;7.70;;;;;;;6.32;70.36;93596.59;5538352;25;20197;-79
2024/04/19 06:06:51;;;;;;;16.95;7.80;;;;;;;6.42;70.26;93591.09;5507391;26;19996;-79
2024/04/19 06:09:16;;;;;;;16.52;8.02;;;;;;;6.50;69.68;93594.94;5539340;26;20170;-81
2024/04/19 06:11:42;;;;;;;17.35;8.32;;;;;;;6.60;69.57;93597.38;5507793;26;20034;-80
2024/04/19 06:14:08;;;;;;;37.42;8.18;;;;;;;6.65;69.05;93593.06;5539439;26;19981;-79
2024/04/19 06:16:33;;;;;;;19.75;7.03;;;;;;;6.70;68.35;93593.78;5507461;26;19981;-79
2024/04/19 06:18:59;;;;;;;14.27;7.72;;;;;;;6.82;67.78;93593.28;5539178;25;20353;-82
2024/04/19 06:21:24;;;;;;;11.82;7.38;;;;;;;6.83;65.62;93592.97;5539502;25;20005;-81
2024/04/19 06:23:49;;;;;;;15.95;6.90;;;;;;;6.81;67.30;93597.00;5539244;26;20096;-81
2024/04/19 06:26:15;;;;;;;19.58;7.82;;;;;;;6.80;65.72;93590.16;5538925;25;19985;-81
2024/04/19 06:28:41;;;;;;;16.65;6.78;;;;;;;6.81;66.57;93586.41;5538305;26;20001;-82
2024/04/19 06:31:12;;;;;;;16.65;7.00;;;;;;;6.84;66.16;93583.19;5539267;25;20003;-81
2024/04/19 06:33:39;;;;;;;14.90;6.97;;;;;;;6.82;64.94;93578.16;5539569;25;19989;-82
2024/04/19 06:36:05;;;;;;;18.88;7.00;;;;;;;6.84;65.33;93575.22;5538558;25;19989;-82
2024/04/19 06:38:30;;;;;;;14.95;6.05;;;;;;;6.75;64.68;93572.47;5538957;25;19995;-82
2024/04/19 06:40:56;;;;;;;11.30;6.25;;;;;;;6.79;65.58;93562.06;5539045;25;19990;-82
2024/04/19 06:43:22;;;;;;;13.35;7.00;;;;;;;6.83;66.68;93568.34;5538735;25;20114;-82
2024/04/19 06:45:47;;;;;;;21.40;7.93;;;;;;;6.85;66.43;93568.84;5538426;25;20192;-82
2024/04/19 06:48:12;;;;;;;25.65;7.47;;;;;;;6.93;66.32;93573.44;5538838;25;19986;-82
2024/04/19 06:50:38;;;;;;;17.85;8.35;;;;;;;7.05;65.79;93577.47;5506948;26;20104;-78
2024/04/19 06:53:04;;;;;;;9.27;5.78;;;;;;;7.13;64.15;93569.56;5538663;26;19990;-77
2024/04/19 06:55:29;;;;;;;10.88;6.80;;;;;;;7.19;63.71;93564.97;5538819;25;20048;-77
2024/04/19 06:57:55;;;;;;;11.93;6.95;;;;;;;7.11;63.20;93568.31;5538847;25;20111;-77
2024/04/19 07:00:21;;;;;;;12.35;6.88;;;;;;;7.15;64.31;93571.94;5538364;25;20221;-77
2024/04/19 07:02:48;;;;;;;13.63;7.15;;;;;;;7.13;64.67;93566.94;5506851;26;19986;-77
2024/04/19 07:05:14;;;;;;;14.32;6.72;;;;;;;7.26;64.65;93564.53;5538359;26;20158;-78
2024/04/19 07:07:39;;;;;;;13.02;6.68;;;;;;;7.30;63.50;93571.59;5538801;25;20023;-77
2024/04/19 07:10:05;;;;;;;11.75;6.22;;;;;;;7.44;62.73;93566.25;5506441;26;20001;-77
2024/04/19 07:12:31;;;;;;;12.38;5.32;;;;;;;7.58;60.59;93566.22;5506858;26;20064;-77
2024/04/19 07:14:57;;;;;;;8.05;4.75;;;;;;;7.57;57.83;93565.44;5536966;25;20017;-82
2024/04/19 07:17:22;;;;;;;8.65;4.72;;;;;;;7.54;57.34;93565.25;5506614;25;20087;-83
2024/04/19 07:19:48;;;;;;;14.07;5.70;;;;;;;7.50;59.38;93570.34;5506458;26;20199;-84
2024/04/19 07:22:14;;;;;;;7.95;4.75;;;;;;;7.69;58.99;93572.03;5538039;26;20021;-82
2024/04/19 07:24:40;;;;;;;10.57;6.10;;;;;;;7.74;59.88;93570.06;5538044;26;20038;-78
2024/04/19 07:27:05;;;;;;;9.63;5.72;;;;;;;7.92;58.94;93575.50;5538145;26;19993;-80
2024/04/19 07:29:31;;;;;;;10.43;5.22;;;;;;;8.07;58.18;93572.44;5538407;25;19992;-80
2024/04/19 07:31:56;;;;;;;10.10;5.72;;;;;;;8.05;57.43;93569.31;5537855;25;19988;-81
2024/04/19 07:34:21;;;;;;;9.05;5.15;;;;;;;8.13;57.52;93559.84;5505850;26;20054;-81
2024/04/19 07:36:47;;;;;;;9.80;6.00;;;;;;;8.11;56.51;93562.03;5538098;26;20010;-81
2024/04/19 07:39:12;;;;;;;18.30;5.57;;;;;;;8.23;57.51;93567.53;5538218;26;20009;-79
2024/04/19 07:41:38;;;;;;;8.40;4.63;;;;;;;8.17;55.35;93555.50;5506263;26;19982;-82
2024/04/19 07:44:03;;;;;;;10.90;5.32;;;;;;;8.16;54.49;93556.56;5537719;25;20047;-80
2024/04/19 07:46:29;;;;;;;14.98;5.18;;;;;;;8.21;55.34;93554.56;5537424;26;19989;-80
2024/04/19 07:48:54;;;;;;;7.95;4.82;;;;;;;8.29;56.10;93557.59;5537920;25;20129;-80
2024/04/19 07:51:19;;;;;;;8.20;4.45;;;;;;;8.25;54.79;93554.75;5537623;26;20189;-80
2024/04/19 07:53:45;;;;;;;8.80;4.70;;;;;;;8.33;52.57;93554.00;5537584;25;19988;-79
2024/04/19 07:56:10;;;;;;;9.68;4.18;;;;;;;8.37;53.93;93552.31;5537745;26;20201;-80
2024/04/19 07:58:36;;;;;;;7.47;4.50;;;;;;;8.42;53.10;93551.41;5505742;26;20041;-80
2024/04/19 08:01:01;;;;;;;8.27;5.07;;;;;;;8.43;52.88;93548.44;5537493;25;20002;-78
2024/04/19 08:03:26;;;;;;;11.23;5.32;;;;;;;8.54;53.81;93550.84;5537766;26;20006;-79
2024/04/19 08:05:52;;;;;;;15.75;4.68;;;;;;;8.69;53.50;93554.94;5537334;26;19982;-79
2024/04/19 08:08:17;;;;;;;7.20;4.72;;;;;;;8.80;52.30;93540.28;5505799;26;19982;-78
2024/04/19 08:10:44;;;;;;;15.95;3.88;;;;;;;9.00;50.68;93533.63;5537422;25;20013;-79
2024/04/19 08:13:09;;;;;;;9.70;4.25;;;;;;;9.16;50.13;93536.59;5538253;25;19993;-76
2024/04/19 08:15:35;;;;;;;12.95;3.92;;;;;;;9.28;50.89;93538.63;5537611;25;19992;-76
2024/04/19 08:18:00;;;;;;;11.63;4.70;;;;;;;9.40;51.12;93531.63;5537596;26;20192;-76
2024/04/19 08:20:25;;;;;;;8.80;4.10;;;;;;;9.54;50.57;93522.69;5537431;26;19986;-76
2024/04/19 08:22:51;;;;;;;6.35;4.13;;;;;;;9.68;49.83;93523.28;5505823;26;19989;-76
2024/04/19 08:25:16;;;;;;;7.78;3.97;;;;;;;9.76;47.33;93517.16;5537286;26;19989;-76
2024/04/19 08:27:42;;;;;;;6.97;3.75;;;;;;;9.69;48.55;93516.88;5540529;26;19985;-76
2024/04/19 08:30:08;;;;;;;9.07;4.25;;;;;;;9.47;47.29;93519.72;5541423;25;19994;-76
2024/04/19 08:32:33;;;;;;;8.23;4.70;;;;;;;9.74;47.92;93518.59;5541624;25;20102;-76
2024/04/19 08:34:58;;;;;;;8.23;4.30;;;;;;;9.91;47.16;93515.91;5541108;26;20200;-76
2024/04/19 08:37:24;;;;;;;14.73;4.13;;;;;;;10.07;46.98;93529.47;5540900;26;19981;-77
2024/04/19 08:39:53;;;;;;;13.98;3.92;;;;;;;10.09;43.95;93524.63;5541219;26;19985;-75
2024/04/19 08:42:20;;;;;;;8.68;5.05;;;;;;;10.06;44.11;93519.16;5541172;25;20099;-75
2024/04/19 08:44:48;;;;;;;8.85;3.50;;;;;;;10.13;41.76;93525.53;5541011;25;19988;-75
2024/04/19 08:47:16;;;;;;;14.02;3.85;;;;;;;10.17;42.78;93523.03;5540841;26;20005;-76
2024/04/19 08:49:43;;;;;;;7.97;3.55;;;;;;;10.24;42.73;93510.78;5540942;26;20077;-77
2024/04/19 08:52:09;;;;;;;6.95;3.47;;;;;;;10.16;42.81;93508.16;5541033;26;19988;-77
2024/04/19 08:54:35;;;;;;;8.35;3.65;;;;;;;10.30;41.51;93519.44;5541110;26;19982;-76
2024/04/19 08:57:02;;;;;;;7.82;2.80;;;;;;;10.35;40.22;93510.47;5508998;25;19982;-78
2024/04/19 08:59:33;;;;;;;8.50;2.80;;;;;;;10.52;38.13;93513.06;5541069;26;19993;-78
2024/04/19 09:01:59;;;;;;;4.57;3.22;;;;;;;10.45;37.31;93518.09;5540977;26;20049;-77
2024/04/19 09:04:25;;;;;;;4.60;2.15;;;;;;;10.35;36.57;93515.81;5540920;25;19997;-76
2024/04/19 09:06:50;;;;;;;5.45;2.45;;;;;;;10.33;36.38;93515.34;5540595;25;20009;-77
2024/04/19 09:09:17;;;;;;;4.65;2.53;;;;;;;10.39;37.57;93516.72;5540811;26;20088;-76
2024/04/19 09:11:48;;;;;;;5.45;2.80;;;;;;;10.45;37.03;93504.78;5541016;26;20010;-76
2024/04/19 09:14:13;;;;;;;4.68;2.53;;;;;;;10.46;35.89;93502.91;5540648;25;20030;-75
2024/04/19 09:16:38;;;;;;;8.45;3.28;;;;;;;10.49;36.49;93504.94;5540739;26;19985;-76
2024/04/19 09:19:06;;;;;;;6.63;4.07;;;;;;;10.52;38.34;93510.41;5508506;26;19982;-76
2024/04/19 09:21:32;;;;;;;6.28;3.15;;;;;;;10.46;38.73;93506.34;5540198;26;19997;-75
2024/04/19 09:23:58;;;;;;;5.32;2.97;;;;;;;10.54;35.92;93508.22;5540297;25;19981;-76
2024/04/19 09:26:24;;;;;;;9.05;3.00;;;;;;;10.48;36.10;93501.47;5540221;26;19986;-76
2024/04/19 09:28:53;;;;;;;5.65;2.95;;;;;;;10.51;36.36;93498.19;5540239;25;19993;-77
2024/04/19 09:31:20;;;;;;;3.65;2.75;;;;;;;10.58;36.61;93490.47;5540747;26;19981;-77
2024/04/19 09:33:45;;;;;;;5.85;3.25;;;;;;;10.68;36.33;93491.19;5540281;25;19992;-77
2024/04/19 09:36:20;;;;;;;8.73;3.17;;;;;;;10.70;35.76;93494.31;5540823;26;19997;-78
2024/04/19 09:38:52;;;;;;;5.32;3.10;;;;;;;10.83;36.18;93485.31;5539184;25;20041;-79
2024/04/19 09:41:19;;;;;;;5.70;3.47;;;;;;;10.96;34.70;93483.50;5540042;26;20042;-76
2024/04/19 09:43:55;;;;;;;5.60;2.85;;;;;;;11.03;36.14;93470.41;5540154;26;19989;-77
2024/04/19 09:46:25;;;;;;;6.68;2.92;;;;;;;11.22;34.41;93467.31;5540389;26;19992;-78
2024/04/19 09:48:52;;;;;;;5.18;2.92;;;;;;;11.32;34.22;93464.25;5540312;25;20021;-76
2024/04/19 09:51:20;;;;;;;5.20;2.47;;;;;;;11.43;34.97;93461.94;5539975;25;19989;-75
2024/04/19 09:53:49;;;;;;;4.45;2.70;;;;;;;11.68;34.36;93470.06;5539878;25;19997;-76
2024/04/19 09:56:42;;;;;;;3.90;2.85;;;;;;;11.73;35.01;93459.94;5540279;25;19998;-76
2024/04/19 09:59:08;;;;;;;4.20;2.38;;;;;;;12.05;34.54;93465.63;5540075;26;20212;-76
2024/04/19 10:01:36;;;;;;;7.38;2.78;;;;;;;12.34;35.23;93450.53;5540069;25;20038;-77
2024/04/19 10:04:08;;;;;;;4.65;2.72;;;;;;;12.64;34.69;93454.53;5508581;25;20097;-76
2024/04/19 10:06:37;;;;;;;3.60;2.00;;;;;;;12.69;31.55;93461.53;5539552;25;19981;-77
2024/04/19 10:09:13;;;;;;;6.00;2.58;;;;;;;12.51;32.73;93444.16;5539865;25;19992;-78
2024/04/19 10:11:40;;;;;;;6.65;2.75;;;;;;;12.29;33.19;93443.47;5508238;26;19995;-78
2024/04/19 10:14:06;;;;;;;4.93;2.67;;;;;;;12.15;32.20;93451.84;5508044;26;19999;-78
2024/04/19 10:16:32;;;;;;;9.18;2.45;;;;;;;11.98;32.40;93444.78;5538980;25;19982;-76
2024/04/19 10:18:58;;;;;;;7.80;2.58;;;;;;;11.92;32.47;93445.34;5507720;26;19990;-77
2024/04/19 10:21:27;;;;;;;7.50;2.45;;;;;;;11.84;32.78;93442.41;5538438;26;20243;-77
2024/04/19 10:24:22;;;;;;;3.22;2.03;;;;;;;11.73;31.18;93438.59;5539535;26;20014;-78
2024/04/19 10:26:55;;;;;;;4.60;3.38;;;;;;;11.76;33.13;93435.25;5536753;26;20188;-77
2024/04/19 10:29:22;;;;;;;8.05;2.25;;;;;;;11.92;33.95;93435.44;5539645;26;20009;-77
2024/04/19 10:31:48;;;;;;;5.10;2.38;;;;;;;12.16;35.13;93432.00;5539916;26;19982;-77
2024/04/19 10:34:14;;;;;;;5.03;2.17;;;;;;;12.44;34.79;93423.34;5540117;26;19992;-76
2024/04/19 10:36:40;;;;;;;4.50;2.33;;;;;;;12.69;32.40;93418.75;5539614;25;19987;-77
2024/04/19 10:39:08;;;;;;;7.45;2.53;;;;;;;12.76;33.32;93415.50;5539577;26;19992;-77
2024/04/19 10:41:34;;;;;;;4.00;2.20;;;;;;;12.56;31.14;93404.63;5539431;26;19989;-76
2024/04/19 10:44:00;;;;;;;4.57;2.05;;;;;;;12.54;32.13;93398.84;5539359;25;20183;-77
2024/04/19 10:46:26;;;;;;;7.53;2.50;;;;;;;12.62;33.46;93405.94;5539198;25;19981;-78
2024/04/19 10:48:52;;;;;;;7.88;2.30;;;;;;;12.78;33.34;93395.34;5539462;25;20004;-77
2024/04/19 10:51:20;;;;;;;7.45;2.55;;;;;;;12.84;33.49;93395.88;5539463;26;20001;-77
2024/04/19 10:53:46;;;;;;;3.88;2.20;;;;;;;13.00;32.75;93394.03;5539422;26;19986;-77
2024/04/19 10:56:11;;;;;;;6.05;1.80;;;;;;;13.18;30.57;93404.47;5539239;26;19996;-77
2024/04/19 10:58:36;;;;;;;2.65;1.73;;;;;;;12.94;30.26;93402.66;5539786;26;19989;-77
2024/04/19 11:01:02;;;;;;;2.17;1.45;;;;;;;12.77;30.54;93387.66;5539289;26;20041;-77
2024/04/19 11:03:28;;;;;;;5.22;1.90;;;;;;;12.70;31.86;93385.56;5538983;25;19985;-77
2024/04/19 11:05:54;;;;;;;2.92;1.70;;;;;;;12.72;31.02;93391.34;5538842;25;20080;-77
2024/04/19 11:08:20;;;;;;;3.10;2.10;;;;;;;12.87;30.85;93381.84;5539141;25;19985;-77
2024/04/19 11:10:46;;;;;;;2.65;1.67;;;;;;;12.96;29.76;93379.00;5538882;25;19982;-77
2024/04/19 11:13:13;;;;;;;3.35;1.73;;;;;;;13.03;30.64;93390.69;5538640;26;20081;-78
2024/04/19 11:15:38;;;;;;;2.55;1.52;;;;;;;13.07;29.89;93373.97;5538699;26;19993;-77
2024/04/19 11:18:06;;;;;;;2.70;1.60;;;;;;;13.14;29.35;93380.28;5539265;25;19985;-77
2024/04/19 11:20:32;;;;;;;3.38;1.70;;;;;;;13.24;29.70;93365.66;5538715;26;19981;-78
2024/04/19 11:23:01;;;;;;;7.55;1.40;;;;;;;13.40;30.15;93366.50;5538492;25;19985;-78
2024/04/19 11:25:27;;;;;;;5.25;1.42;;;;;;;13.59;29.22;93367.75;5538385;25;19990;-78
2024/04/19 11:27:54;;;;;;;4.18;1.25;;;;;;;13.73;30.28;93367.31;5538336;26;20213;-79
2024/04/19 11:30:21;;;;;;;4.10;1.10;;;;;;;13.82;28.40;93373.31;5538648;26;19997;-77
2024/04/19 11:32:49;;;;;;;2.35;1.25;;;;;;;13.84;31.24;93369.16;5538415;25;19996;-77
2024/04/19 11:35:17;;;;;;;3.28;1.27;;;;;;;14.01;29.04;93362.66;5538203;25;19985;-77